createdAt,value
2022-12-12T00:02:04.914Z,7.64
2022-12-12T00:04:33.593Z,7.64
2022-12-12T00:07:00.041Z,7.65
2022-12-12T00:09:26.382Z,7.63
2022-12-12T00:11:52.900Z,7.63
2022-12-12T00:14:19.237Z,7.64
2022-12-12T00:16:45.774Z,7.63
2022-12-12T00:19:12.903Z,7.63
2022-12-12T00:21:39.271Z,7.63
2022-12-12T00:24:07.158Z,7.63
2022-12-12T00:26:34.678Z,7.62
2022-12-12T00:29:02.850Z,7.61
2022-12-12T00:31:30.135Z,7.61
2022-12-12T00:33:56.845Z,7.61
2022-12-12T00:36:26.529Z,7.60
2022-12-12T00:38:54.806Z,7.60
2022-12-12T00:41:22.180Z,7.59
2022-12-12T00:43:48.872Z,7.57
2022-12-12T00:46:17.878Z,7.55
2022-12-12T00:48:44.874Z,7.54
2022-12-12T00:51:17.943Z,7.52
2022-12-12T00:53:46.437Z,7.51
2022-12-12T00:56:17.231Z,7.52
2022-12-12T00:58:43.751Z,7.54
2022-12-12T01:01:17.892Z,7.52
2022-12-12T01:03:44.779Z,7.52
2022-12-12T01:06:11.431Z,7.50
2022-12-12T01:08:40.940Z,7.48
2022-12-12T01:11:09.289Z,7.48
2022-12-12T01:13:36.161Z,7.48
2022-12-12T01:16:02.667Z,7.48
2022-12-12T01:18:29.720Z,7.47
2022-12-12T01:20:56.066Z,7.48
2022-12-12T01:23:22.508Z,7.49
2022-12-12T01:25:49.276Z,7.50
2022-12-12T01:28:15.764Z,7.50
2022-12-12T01:30:43.342Z,7.51
2022-12-12T01:33:12.210Z,7.51
2022-12-12T01:35:41.220Z,7.51
2022-12-12T01:38:07.517Z,7.51
2022-12-12T01:40:33.819Z,7.51
2022-12-12T01:43:00.424Z,7.52
2022-12-12T01:46:08.634Z,7.50
2022-12-12T01:48:45.594Z,7.54
2022-12-12T01:51:16.287Z,7.55
2022-12-12T01:53:44.346Z,7.56
2022-12-12T01:56:14.973Z,7.57
2022-12-12T01:58:47.864Z,7.56
2022-12-12T02:01:16.232Z,7.57
2022-12-12T02:03:44.761Z,7.56
2022-12-12T02:06:14.768Z,7.56
2022-12-12T02:08:42.157Z,7.57
2022-12-12T02:11:09.065Z,7.55
2022-12-12T02:13:36.317Z,7.53
2022-12-12T02:16:35.664Z,7.51
2022-12-12T02:19:08.281Z,7.52
2022-12-12T02:21:34.599Z,7.51
2022-12-12T02:24:36.065Z,7.47
2022-12-12T02:27:24.313Z,7.47
2022-12-12T02:30:09.589Z,7.50
2022-12-12T02:33:14.122Z,7.48
2022-12-12T02:35:56.854Z,7.48
2022-12-12T02:38:52.320Z,7.48
2022-12-12T02:41:37.389Z,7.47
2022-12-12T02:44:29.062Z,7.42
2022-12-12T02:47:18.702Z,7.41
2022-12-12T02:50:04.924Z,7.42
2022-12-12T02:52:32.554Z,7.43
2022-12-12T02:54:59.128Z,7.45
2022-12-12T02:57:26.934Z,7.44
2022-12-12T03:00:01.758Z,7.43
2022-12-12T03:02:47.039Z,7.45
2022-12-12T03:05:50.757Z,7.42
2022-12-12T03:09:12.275Z,7.44
2022-12-12T03:11:46.443Z,7.46
2022-12-12T03:14:33.537Z,7.47
2022-12-12T03:17:08.610Z,7.49
2022-12-12T03:19:59.193Z,7.48
2022-12-12T03:22:42.868Z,7.51
2022-12-12T03:25:18.552Z,7.53
2022-12-12T03:27:59.235Z,7.52
2022-12-12T03:30:27.982Z,7.55
2022-12-12T03:33:00.506Z,7.56
2022-12-12T03:35:40.496Z,7.57
2022-12-12T03:38:14.224Z,7.60
2022-12-12T03:40:48.776Z,7.61
2022-12-12T03:43:19.855Z,7.62
2022-12-12T03:46:09.210Z,7.61
2022-12-12T03:49:04.735Z,7.62
2022-12-12T03:51:36.316Z,7.64
2022-12-12T03:54:23.021Z,7.63
2022-12-12T03:57:10.565Z,7.63
2022-12-12T03:59:42.588Z,7.66
2022-12-12T04:02:24.360Z,7.64
2022-12-12T04:04:56.538Z,7.66
2022-12-12T04:07:29.698Z,7.68
2022-12-12T04:10:15.405Z,7.68
2022-12-12T04:13:00.160Z,7.69
2022-12-12T04:15:51.845Z,7.68
2022-12-12T04:18:45.724Z,7.70
2022-12-12T04:21:41.937Z,7.71
2022-12-12T04:24:38.897Z,7.71
2022-12-12T04:27:12.365Z,7.73
2022-12-12T04:29:46.210Z,7.72
2022-12-12T04:32:25.833Z,7.70
2022-12-12T04:35:02.292Z,7.71
2022-12-12T04:37:37.305Z,7.72
2022-12-12T04:40:09.342Z,7.73
2022-12-12T04:42:45.220Z,7.72
2022-12-12T04:45:20.585Z,7.73
2022-12-12T04:47:51.152Z,7.74
2022-12-12T04:50:22.124Z,7.73
2022-12-12T04:52:50.291Z,7.75
2022-12-12T04:55:27.418Z,7.72
2022-12-12T04:57:55.090Z,7.73
2022-12-12T05:00:24.987Z,7.72
2022-12-12T05:03:15.226Z,7.70
2022-12-12T05:05:48.758Z,7.72
2022-12-12T05:08:23.330Z,7.70
2022-12-12T05:10:56.018Z,7.68
2022-12-12T05:13:27.599Z,7.66
2022-12-12T05:15:57.714Z,7.63
2022-12-12T05:18:24.344Z,7.62
2022-12-12T05:20:51.326Z,7.61
2022-12-12T05:23:19.574Z,7.61
2022-12-12T05:25:45.991Z,7.60
2022-12-12T05:28:12.892Z,7.58
2022-12-12T05:30:39.623Z,7.59
2022-12-12T05:33:06.312Z,7.58
2022-12-12T05:35:36.744Z,7.58
2022-12-12T05:38:04.168Z,7.57
2022-12-12T05:40:30.837Z,7.59
2022-12-12T05:42:57.638Z,7.61
2022-12-12T05:45:24.486Z,7.61
2022-12-12T05:47:51.017Z,7.62
2022-12-12T05:50:17.522Z,7.63
2022-12-12T05:52:44.211Z,7.63
2022-12-12T05:55:10.947Z,7.65
2022-12-12T05:57:37.538Z,7.65
2022-12-12T06:00:04.983Z,7.65
2022-12-12T06:02:31.395Z,7.65
2022-12-12T06:04:57.871Z,7.64
2022-12-12T06:07:24.454Z,7.64
2022-12-12T06:09:50.820Z,7.62
2022-12-12T06:12:17.360Z,7.60
2022-12-12T06:14:43.807Z,7.60
2022-12-12T06:17:10.172Z,7.58
2022-12-12T06:19:36.612Z,7.56
2022-12-12T06:22:02.997Z,7.56
2022-12-12T06:24:29.356Z,7.55
2022-12-12T06:26:55.728Z,7.53
2022-12-12T06:29:22.146Z,7.52
2022-12-12T06:31:48.509Z,7.51
2022-12-12T06:34:15.002Z,7.50
2022-12-12T06:36:41.441Z,7.50
2022-12-12T06:39:07.816Z,7.48
2022-12-12T06:41:34.585Z,7.51
2022-12-12T06:44:01.091Z,7.52
2022-12-12T06:46:29.545Z,7.53
2022-12-12T06:48:56.294Z,7.55
2022-12-12T06:51:26.502Z,7.56
2022-12-12T06:53:53.382Z,7.57
2022-12-12T06:56:23.408Z,7.56
2022-12-12T06:58:50.714Z,7.56
2022-12-12T07:01:19.477Z,7.56
2022-12-12T07:03:46.937Z,7.56
2022-12-12T07:06:13.746Z,7.56
2022-12-12T07:08:40.139Z,7.57
2022-12-12T07:11:10.527Z,7.57
2022-12-12T07:13:37.233Z,7.58
2022-12-12T07:16:04.352Z,7.61
2022-12-12T07:18:30.915Z,7.61
2022-12-12T07:20:57.466Z,7.63
2022-12-12T07:23:23.819Z,7.64
2022-12-12T07:25:50.427Z,7.65
2022-12-12T07:28:17.076Z,7.65
2022-12-12T07:30:46.155Z,7.64
2022-12-12T07:33:14.084Z,7.62
2022-12-12T07:35:41.676Z,7.64
2022-12-12T07:38:08.042Z,7.63
2022-12-12T07:40:34.541Z,7.65
2022-12-12T07:43:00.950Z,7.65
2022-12-12T07:45:28.727Z,7.66
2022-12-12T07:47:55.802Z,7.67
2022-12-12T07:50:22.549Z,7.68
2022-12-12T07:52:49.195Z,7.68
2022-12-12T07:55:16.547Z,7.69
2022-12-12T07:57:42.914Z,7.68
2022-12-12T08:00:13.120Z,7.69
2022-12-12T08:02:40.317Z,7.71
2022-12-12T08:05:09.325Z,7.70
2022-12-12T08:07:35.764Z,7.71
2022-12-12T08:10:03.155Z,7.72
2022-12-12T08:12:30.618Z,7.75
2022-12-12T08:14:57.017Z,7.76
2022-12-12T08:17:23.919Z,7.77
2022-12-12T08:19:50.548Z,7.77
2022-12-12T08:22:17.493Z,7.77
2022-12-12T08:24:43.881Z,7.78
2022-12-12T08:27:15.476Z,7.81
2022-12-12T08:29:42.053Z,7.81
2022-12-12T08:32:08.652Z,7.83
2022-12-12T08:34:35.272Z,7.85
2022-12-12T08:37:01.667Z,7.86
2022-12-12T08:39:28.226Z,7.87
2022-12-12T08:41:54.699Z,7.89
2022-12-12T08:44:21.801Z,7.90
2022-12-12T08:46:49.570Z,7.92
2022-12-12T08:49:16.079Z,7.93
2022-12-12T08:51:42.936Z,7.96
2022-12-12T08:54:11.698Z,7.98
2022-12-12T08:56:38.263Z,7.99
2022-12-12T08:59:04.981Z,8.01
2022-12-12T09:01:31.721Z,8.03
2022-12-12T09:03:58.660Z,8.03
2022-12-12T09:06:26.195Z,8.04
2022-12-12T09:08:53.220Z,8.07
2022-12-12T09:11:19.728Z,8.10
2022-12-12T09:13:46.118Z,8.12
2022-12-12T09:16:12.855Z,8.15
2022-12-12T09:18:44.578Z,8.17
2022-12-12T09:21:14.762Z,8.19
2022-12-12T09:23:41.271Z,8.21
2022-12-12T09:26:09.190Z,8.21
2022-12-12T09:28:36.306Z,8.23
2022-12-12T09:31:08.453Z,8.22
2022-12-12T09:33:36.959Z,8.23
2022-12-12T09:36:04.901Z,8.26
2022-12-12T09:38:31.880Z,8.30
2022-12-12T09:41:02.843Z,8.29
2022-12-12T09:43:47.922Z,8.27
2022-12-12T09:46:38.504Z,8.27
2022-12-12T09:49:13.207Z,8.28
2022-12-12T09:51:42.161Z,8.29
2022-12-12T09:54:13.434Z,8.27
2022-12-12T09:56:51.635Z,8.26
2022-12-12T09:59:29.556Z,8.28
2022-12-12T10:02:25.576Z,8.22
2022-12-12T10:05:04.060Z,8.22
2022-12-12T10:07:41.348Z,8.21
2022-12-12T10:10:34.620Z,8.20
2022-12-12T10:13:04.607Z,8.21
2022-12-12T10:15:38.668Z,8.21
2022-12-12T10:18:14.129Z,8.24
2022-12-12T10:20:53.531Z,8.22
2022-12-12T10:23:29.245Z,8.27
2022-12-12T10:26:07.026Z,8.28
2022-12-12T10:28:35.350Z,8.32
2022-12-12T10:31:20.539Z,8.32
2022-12-12T10:34:24.755Z,8.33
2022-12-12T10:37:01.216Z,8.38
2022-12-12T10:39:42.790Z,8.37
2022-12-12T10:42:38.611Z,8.38
2022-12-12T10:45:23.171Z,8.43
2022-12-12T10:47:50.114Z,8.45
2022-12-12T10:50:32.629Z,8.45
2022-12-12T10:52:58.964Z,8.50
2022-12-12T10:55:37.310Z,8.51
2022-12-12T10:58:08.155Z,8.57
2022-12-12T11:00:40.955Z,8.62
2022-12-12T11:03:29.290Z,8.61
2022-12-12T11:05:57.519Z,8.64
2022-12-12T11:08:28.686Z,8.64
2022-12-12T11:11:01.963Z,8.64
2022-12-12T11:13:29.440Z,8.64
2022-12-12T11:16:01.982Z,8.62
2022-12-12T11:18:29.615Z,8.63
2022-12-12T11:21:05.225Z,8.61
2022-12-12T11:23:33.538Z,8.64
2022-12-12T11:26:08.024Z,8.64
2022-12-12T11:28:39.863Z,8.66
2022-12-12T11:31:10.587Z,8.68
2022-12-12T11:33:45.544Z,8.71
2022-12-12T11:36:18.904Z,8.73
2022-12-12T11:38:49.542Z,8.78
2022-12-12T11:41:16.134Z,8.81
2022-12-12T11:43:45.544Z,8.84
2022-12-12T11:46:15.119Z,8.87
2022-12-12T11:48:47.935Z,8.91
2022-12-12T11:51:31.230Z,8.93
2022-12-12T11:53:58.298Z,8.96
2022-12-12T11:56:37.722Z,8.98
2022-12-12T11:59:22.577Z,9.02
2022-12-12T12:02:04.157Z,9.08
2022-12-12T12:04:46.952Z,9.12
2022-12-12T12:07:38.988Z,9.15
2022-12-12T12:10:37.124Z,9.22
2022-12-12T12:13:18.387Z,9.30
2022-12-12T12:16:08.046Z,9.37
2022-12-12T12:19:01.696Z,9.41
2022-12-12T12:21:55.709Z,9.45
2022-12-12T12:24:37.217Z,9.47
2022-12-12T12:27:19.234Z,9.50
2022-12-12T12:30:06.355Z,9.52
2022-12-12T12:32:59.071Z,9.57
2022-12-12T12:35:25.356Z,9.61
2022-12-12T12:38:10.733Z,9.65
2022-12-12T12:40:59.321Z,9.66
2022-12-12T12:43:47.742Z,9.70
2022-12-12T12:46:42.508Z,9.72
2022-12-12T12:49:22.351Z,9.77
2022-12-12T12:52:03.049Z,9.86
2022-12-12T12:54:43.130Z,9.94
2022-12-12T12:57:34.835Z,10.00
2022-12-12T13:00:15.931Z,10.07
2022-12-12T13:03:04.125Z,10.12
2022-12-12T13:05:41.527Z,10.19
2022-12-12T13:08:11.491Z,10.25
2022-12-12T13:10:44.429Z,10.30
2022-12-12T13:13:23.095Z,10.33
2022-12-12T13:15:55.910Z,10.36
2022-12-12T13:18:22.288Z,10.38
2022-12-12T13:21:00.803Z,10.40
2022-12-12T13:23:56.517Z,10.42
2022-12-12T13:26:46.211Z,10.43
2022-12-12T13:29:47.978Z,10.42
2022-12-12T13:32:40.077Z,10.42
2022-12-12T13:35:12.252Z,10.40
2022-12-12T13:37:51.074Z,10.35
2022-12-12T13:40:25.528Z,10.34
2022-12-12T13:43:05.683Z,10.31
2022-12-12T13:45:40.062Z,10.26
2022-12-12T13:48:29.348Z,10.22
2022-12-12T13:51:27.321Z,10.14
2022-12-12T13:54:13.322Z,10.09
2022-12-12T13:56:59.658Z,10.04
2022-12-12T13:59:25.927Z,9.99
2022-12-12T14:01:58.614Z,9.91
2022-12-12T14:04:30.999Z,9.83
2022-12-12T14:07:00.616Z,9.78
2022-12-12T14:09:46.588Z,9.72
2022-12-12T14:12:31.555Z,9.67
2022-12-12T14:15:01.973Z,9.65
2022-12-12T14:17:38.386Z,9.61
2022-12-12T14:20:23.042Z,9.59
2022-12-12T14:22:49.345Z,9.56
2022-12-12T14:25:17.239Z,9.52
2022-12-12T14:27:51.365Z,9.47
2022-12-12T14:30:22.358Z,9.45
2022-12-12T14:33:01.095Z,9.44
2022-12-12T14:35:57.547Z,9.39
2022-12-12T14:38:48.117Z,9.38
2022-12-12T14:41:20.009Z,9.37
2022-12-12T14:44:37.085Z,9.34
2022-12-12T14:46:44.103Z,9.36
2022-12-12T14:49:17.906Z,9.33
2022-12-12T14:51:49.215Z,9.32
2022-12-12T14:54:20.197Z,9.31
2022-12-12T14:56:53.136Z,9.27
2022-12-12T14:59:26.212Z,9.24
2022-12-12T15:01:57.927Z,9.21
2022-12-12T15:04:28.962Z,9.14
2022-12-12T15:06:55.863Z,9.09
2022-12-12T15:09:34.373Z,8.99
2022-12-12T15:12:11.614Z,8.91
2022-12-12T15:14:51.778Z,8.83
2022-12-12T15:17:48.387Z,8.71
2022-12-12T15:20:18.679Z,8.66
2022-12-12T15:22:57.755Z,8.56
2022-12-12T15:25:27.698Z,8.50
2022-12-12T15:27:56.630Z,8.41
2022-12-12T15:30:33.104Z,8.31
2022-12-12T15:33:01.959Z,8.23
2022-12-12T15:35:28.928Z,8.15
2022-12-12T15:37:59.775Z,8.08
2022-12-12T15:40:30.866Z,8.02
2022-12-12T15:43:03.177Z,7.93
2022-12-12T15:45:36.756Z,7.87
2022-12-12T15:48:05.160Z,7.83
2022-12-12T15:50:37.189Z,7.79
2022-12-12T15:53:08.528Z,7.73
2022-12-12T15:55:35.332Z,7.68
2022-12-12T15:58:02.335Z,7.60
2022-12-12T16:00:33.824Z,7.52
2022-12-12T16:03:07.175Z,7.47
2022-12-12T16:05:38.354Z,7.41
2022-12-12T16:08:34.525Z,7.33
2022-12-12T16:11:04.459Z,7.32
2022-12-12T16:13:41.542Z,7.24
2022-12-12T16:16:38.033Z,7.20
2022-12-12T16:19:21.820Z,7.17
2022-12-12T16:21:48.550Z,7.11
2022-12-12T16:24:24.695Z,7.05
2022-12-12T16:26:58.627Z,7.02
2022-12-12T16:29:26.565Z,6.98
2022-12-12T16:31:53.289Z,6.94
2022-12-12T16:34:19.710Z,6.89
2022-12-12T16:36:46.507Z,6.85
2022-12-12T16:39:13.759Z,6.82
2022-12-12T16:41:40.669Z,6.78
2022-12-12T16:44:07.766Z,6.76
2022-12-12T16:46:34.280Z,6.73
2022-12-12T16:49:04.487Z,6.68
2022-12-12T16:51:33.941Z,6.65
2022-12-12T16:54:00.609Z,6.62
2022-12-12T16:56:27.343Z,6.59
2022-12-12T16:58:56.171Z,6.56
2022-12-12T17:01:23.180Z,6.54
2022-12-12T17:03:49.756Z,6.51
2022-12-12T17:06:16.578Z,6.49
2022-12-12T17:08:42.897Z,6.47
2022-12-12T17:11:11.197Z,6.43
2022-12-12T17:13:39.113Z,6.43
2022-12-12T17:16:05.684Z,6.41
2022-12-12T17:18:32.236Z,6.39
2022-12-12T17:20:58.613Z,6.35
2022-12-12T17:23:27.967Z,6.31
2022-12-12T17:25:59.099Z,6.29
2022-12-12T17:28:30.256Z,6.26
2022-12-12T17:30:56.724Z,6.23
2022-12-12T17:33:23.094Z,6.21
2022-12-12T17:36:06.270Z,6.16
2022-12-12T17:38:33.610Z,6.17
2022-12-12T17:41:04.147Z,6.13
2022-12-12T17:43:30.686Z,6.12
2022-12-12T17:45:59.754Z,6.12
2022-12-12T17:48:31.151Z,6.08
2022-12-12T17:51:03.743Z,6.08
2022-12-12T17:53:38.134Z,6.09
2022-12-12T17:56:08.828Z,6.08
2022-12-12T17:58:41.052Z,6.05
2022-12-12T18:01:20.885Z,6.02
2022-12-12T18:03:48.148Z,6.02
2022-12-12T18:06:15.499Z,5.99
2022-12-12T18:08:42.087Z,5.96
2022-12-12T18:11:10.388Z,5.93
2022-12-12T18:13:38.600Z,5.91
2022-12-12T18:16:06.136Z,5.88
2022-12-12T18:18:32.711Z,5.84
2022-12-12T18:24:07.891Z,5.79
2022-12-12T18:26:34.659Z,5.77
2022-12-12T18:29:04.466Z,5.74
2022-12-12T18:31:31.893Z,5.72
2022-12-12T18:33:58.577Z,5.72
2022-12-12T18:36:27.702Z,5.71
2022-12-12T18:38:59.524Z,5.67
2022-12-12T18:41:27.495Z,5.65
2022-12-12T18:43:55.014Z,5.64
2022-12-12T18:46:24.789Z,5.64
2022-12-12T18:48:51.219Z,5.62
2022-12-12T18:51:20.386Z,5.60
2022-12-12T18:53:47.589Z,5.58
2022-12-12T18:56:23.028Z,5.56
2022-12-12T18:58:49.811Z,5.54
2022-12-12T19:01:19.129Z,5.53
2022-12-12T19:03:48.539Z,5.51
2022-12-12T19:06:18.548Z,5.48
2022-12-12T19:08:45.011Z,5.46
2022-12-12T19:11:12.665Z,5.43
2022-12-12T19:13:39.289Z,5.42
2022-12-12T19:16:08.160Z,5.39
2022-12-12T19:18:35.828Z,5.36
2022-12-12T19:21:11.835Z,5.34
2022-12-12T19:23:39.184Z,5.32
2022-12-12T19:26:13.910Z,5.30
2022-12-12T19:28:40.420Z,5.28
2022-12-12T19:31:09.594Z,5.25
2022-12-12T19:33:38.405Z,5.25
2022-12-12T19:36:17.855Z,5.22
2022-12-12T19:38:45.476Z,5.20
2022-12-12T19:41:14.726Z,5.19
2022-12-12T19:43:43.092Z,5.18
2022-12-12T19:46:21.651Z,5.16
2022-12-12T19:48:49.047Z,5.16
2022-12-12T19:51:18.161Z,5.14
2022-12-12T19:53:46.746Z,5.14
2022-12-12T19:56:15.172Z,5.12
2022-12-12T19:58:43.675Z,5.11
2022-12-12T20:01:18.200Z,5.11
2022-12-12T20:03:56.650Z,5.06
2022-12-12T20:06:24.690Z,5.06
2022-12-12T20:08:51.866Z,5.03
2022-12-12T20:11:21.194Z,5.00
2022-12-12T20:13:55.738Z,4.97
2022-12-12T20:16:25.468Z,4.95
2022-12-12T20:18:53.386Z,4.95
2022-12-12T20:21:51.810Z,4.92
2022-12-12T20:24:10.012Z,4.91
2022-12-12T20:26:39.397Z,4.90
2022-12-12T20:29:07.262Z,4.89
2022-12-12T20:31:36.976Z,4.87
2022-12-12T20:34:03.972Z,4.85
2022-12-12T20:36:33.998Z,4.84
2022-12-12T20:39:03.225Z,4.81
2022-12-12T20:41:32.583Z,4.79
2022-12-12T20:43:59.777Z,4.78
2022-12-12T20:46:32.532Z,4.73
2022-12-12T20:49:00.901Z,4.73
2022-12-12T20:51:59.012Z,4.72
2022-12-12T20:54:19.824Z,4.73
2022-12-12T20:56:47.391Z,4.70
2022-12-12T20:59:14.608Z,4.66
2022-12-12T21:01:41.932Z,4.64
2022-12-12T21:04:09.364Z,4.61
2022-12-12T21:06:38.947Z,4.58
2022-12-12T21:09:09.429Z,4.57
2022-12-12T21:11:37.852Z,4.55
2022-12-12T21:14:04.859Z,4.53
2022-12-12T21:16:34.883Z,4.51
2022-12-12T21:19:05.338Z,4.50
2022-12-12T21:21:31.946Z,4.49
2022-12-12T21:23:59.213Z,4.47
2022-12-12T21:26:29.145Z,4.46
2022-12-12T21:28:56.410Z,4.46
2022-12-12T21:31:28.463Z,4.43
2022-12-12T21:33:55.167Z,4.42
2022-12-12T21:36:23.864Z,4.41
2022-12-12T21:38:52.133Z,4.38
2022-12-12T21:41:20.133Z,4.38
2022-12-12T21:43:48.395Z,4.40
2022-12-12T21:46:22.113Z,4.36
2022-12-12T21:49:12.170Z,4.35
2022-12-12T21:51:42.011Z,4.31
2022-12-12T21:54:09.749Z,4.29
2022-12-12T21:56:36.821Z,4.27
2022-12-12T21:59:03.927Z,4.26
2022-12-12T22:01:32.480Z,4.24
2022-12-12T22:04:00.152Z,4.22
2022-12-12T22:06:29.402Z,4.20
2022-12-12T22:08:56.449Z,4.20
2022-12-12T22:11:34.362Z,4.18
2022-12-12T22:14:08.673Z,4.17
2022-12-12T22:16:35.605Z,4.17
2022-12-12T22:19:07.107Z,4.14
2022-12-12T22:21:34.800Z,4.13
2022-12-12T22:24:01.747Z,4.11
2022-12-12T22:26:29.680Z,4.09
2022-12-12T22:29:01.953Z,4.07
2022-12-12T22:31:34.416Z,4.05
2022-12-12T22:34:03.683Z,4.03
2022-12-12T22:36:32.263Z,4.01
2022-12-12T22:39:00.011Z,3.99
2022-12-12T22:41:28.892Z,3.97
2022-12-12T22:43:57.468Z,3.96
2022-12-12T22:46:26.469Z,3.94
2022-12-12T22:48:56.923Z,3.92
2022-12-12T22:51:32.594Z,3.88
2022-12-12T22:54:01.684Z,3.87
2022-12-12T22:56:29.126Z,3.84
2022-12-12T22:58:55.549Z,3.82
2022-12-12T23:01:23.119Z,3.78
2022-12-12T23:03:50.480Z,3.78
2022-12-12T23:06:30.106Z,3.76
2022-12-12T23:09:00.879Z,3.74
2022-12-12T23:11:29.807Z,3.74
2022-12-12T23:14:00.198Z,3.72
2022-12-12T23:16:31.059Z,3.72
2022-12-12T23:18:58.774Z,3.70
2022-12-12T23:21:26.230Z,3.69
2022-12-12T23:23:54.451Z,3.65
2022-12-12T23:26:27.074Z,3.62
2022-12-12T23:28:53.521Z,3.61
2022-12-12T23:31:26.609Z,3.59
2022-12-12T23:33:59.248Z,3.57
2022-12-12T23:36:27.459Z,3.57
2022-12-12T23:38:58.509Z,3.55
2022-12-12T23:41:25.690Z,3.53
2022-12-12T23:43:52.491Z,3.51
2022-12-12T23:46:29.850Z,3.49
2022-12-12T23:49:25.632Z,3.46
2022-12-12T23:51:55.579Z,3.46
2022-12-12T23:54:24.472Z,3.43
2022-12-12T23:56:52.354Z,3.41
2022-12-12T23:59:20.835Z,3.37
